Time;durP1;ratioP1;P1;durP2;ratioP2;P2;SDS_P1;SDS_P2;PMS_P1;PMS_P2;Temp;Humidity;BMP_temperature;BMP_pressure;BME280_temperature;BME280_humidity;BME280_pressure;Samples;Min_cycle;Max_cycle;Signal;HPM_P1;HPM_P2
2023/01/14 00:02:14;;;;;;;15.30;2.08;;;;;;;6.19;81.61;101397.97;5069071;28;20038;-77
2023/01/14 00:04:41;;;;;;;8.98;2.15;;;;;;;6.17;81.56;101399.69;5072144;28;20501;-77
2023/01/14 00:07:07;;;;;;;12.38;2.33;;;;;;;6.17;81.54;101404.00;5066586;28;20028;-77
2023/01/14 00:09:32;;;;;;;10.38;2.00;;;;;;;6.15;81.60;101398.81;5066349;28;20391;-77
2023/01/14 00:11:57;;;;;;;11.55;2.30;;;;;;;6.14;81.72;101402.28;5068533;28;20501;-77
2023/01/14 00:14:28;;;;;;;9.20;2.17;;;;;;;6.11;81.79;101415.19;5062668;28;20029;-77
2023/01/14 00:16:54;;;;;;;14.35;2.35;;;;;;;6.11;81.83;101425.53;5057288;28;20027;-77
2023/01/14 00:19:20;;;;;;;10.38;2.25;;;;;;;6.08;81.53;101420.34;5056147;28;20037;-77
2023/01/14 00:21:46;;;;;;;11.98;2.25;;;;;;;6.07;81.65;101421.19;5057923;28;20021;-77
2023/01/14 00:24:13;;;;;;;12.30;2.15;;;;;;;6.05;81.89;101410.00;5062918;28;20082;-77
2023/01/14 00:26:40;;;;;;;10.80;2.15;;;;;;;6.03;81.71;101422.06;5047429;28;20091;-77
2023/01/14 00:29:06;;;;;;;13.82;2.30;;;;;;;5.99;81.63;101417.69;5059107;28;20065;-77
2023/01/14 00:31:31;;;;;;;13.07;2.20;;;;;;;5.98;81.70;101426.34;5069901;28;20059;-77
2023/01/14 00:33:59;;;;;;;13.55;2.25;;;;;;;5.98;81.72;101426.34;5065026;28;20064;-77
2023/01/14 00:36:25;;;;;;;12.50;2.42;;;;;;;5.95;81.45;101428.91;5051178;28;20024;-77
2023/01/14 00:38:54;;;;;;;10.52;2.05;;;;;;;5.91;81.78;101412.50;5052511;28;20476;-77
2023/01/14 00:41:23;;;;;;;9.15;2.00;;;;;;;5.88;81.67;101405.63;5067341;28;20048;-77
2023/01/14 00:43:53;;;;;;;12.63;1.92;;;;;;;5.84;81.71;101411.63;5054613;28;20480;-77
2023/01/14 00:46:21;;;;;;;8.48;1.90;;;;;;;5.79;82.00;101413.34;5050901;28;20036;-77
2023/01/14 00:48:46;;;;;;;14.23;2.85;;;;;;;5.76;82.34;101418.50;5052373;28;20489;-77
2023/01/14 00:51:13;;;;;;;11.70;2.30;;;;;;;5.72;81.74;101411.59;5071065;28;20036;-77
2023/01/14 00:53:39;;;;;;;10.00;1.80;;;;;;;5.69;81.91;101416.75;5070937;28;20035;-77
2023/01/14 00:56:05;;;;;;;13.00;2.50;;;;;;;5.66;82.04;101409.88;5044418;28;20025;-77
2023/01/14 00:58:31;;;;;;;10.57;1.92;;;;;;;5.59;82.27;101411.56;5054566;28;20229;-76
2023/01/14 01:00:57;;;;;;;12.40;2.17;;;;;;;5.56;82.34;101403.78;5063066;28;20437;-77
2023/01/14 01:03:22;;;;;;;14.07;2.20;;;;;;;5.57;82.63;101407.22;5068901;28;20028;-77
2023/01/14 01:05:48;;;;;;;13.35;2.30;;;;;;;5.54;82.63;101418.41;5060783;28;20083;-77
2023/01/14 01:08:15;;;;;;;11.55;2.42;;;;;;;5.52;82.79;101430.44;5067047;28;20486;-77
2023/01/14 01:10:45;;;;;;;11.02;2.83;;;;;;;5.49;83.46;101425.25;5066442;28;20048;-77
2023/01/14 01:13:11;;;;;;;9.45;1.98;;;;;;;5.46;83.56;101426.13;5060233;28;20046;-77
2023/01/14 01:15:38;;;;;;;14.70;2.22;;;;;;;5.45;83.55;101441.59;5060447;28;20135;-77
2023/01/14 01:18:05;;;;;;;12.48;2.20;;;;;;;5.42;83.67;101436.44;5063935;28;20086;-77
2023/01/14 01:20:31;;;;;;;14.23;2.47;;;;;;;5.41;84.11;101448.44;5073650;28;20499;-77
2023/01/14 01:22:56;;;;;;;14.30;2.30;;;;;;;5.39;83.70;101434.66;5048202;28;20028;-77
2023/01/14 01:25:22;;;;;;;9.88;2.45;;;;;;;5.39;83.93;101433.81;5059962;28;20028;-77
2023/01/14 01:27:47;;;;;;;13.77;2.70;;;;;;;5.36;83.92;101432.09;5058833;28;20040;-77
2023/01/14 01:30:13;;;;;;;16.45;2.40;;;;;;;5.36;84.53;101429.53;5064915;28;20107;-76
2023/01/14 01:32:38;;;;;;;10.80;1.95;;;;;;;5.35;84.59;101426.91;5068315;28;20039;-77
2023/01/14 01:35:04;;;;;;;9.52;2.40;;;;;;;5.30;84.79;101425.16;5054263;28;20483;-76
2023/01/14 01:37:29;;;;;;;8.40;2.22;;;;;;;5.31;84.63;101437.22;5051827;28;20434;-77
2023/01/14 01:39:55;;;;;;;15.35;2.20;;;;;;;5.28;84.86;101428.59;5059937;28;20032;-77
2023/01/14 01:42:22;;;;;;;10.57;2.10;;;;;;;5.29;84.81;101422.59;5067177;28;20031;-77
2023/01/14 01:44:48;;;;;;;13.18;2.22;;;;;;;5.28;84.59;101426.03;5072904;28;20028;-77
2023/01/14 01:47:14;;;;;;;11.88;2.10;;;;;;;5.26;84.76;101418.28;5069015;28;20035;-77
2023/01/14 01:49:40;;;;;;;11.93;2.33;;;;;;;5.23;85.22;101415.69;5062851;28;20025;-77
2023/01/14 01:52:15;;;;;;;12.60;2.40;;;;;;;5.24;84.90;101413.94;5057276;28;20383;-77
2023/01/14 01:54:48;;;;;;;18.80;2.72;;;;;;;5.22;85.26;101415.66;5053773;28;20033;-77
2023/01/14 01:57:16;;;;;;;15.13;2.28;;;;;;;5.21;85.21;101419.13;5060380;28;20099;-77
2023/01/14 01:59:45;;;;;;;16.77;2.65;;;;;;;5.19;85.36;101411.34;5053472;28;20051;-77
2023/01/14 02:02:11;;;;;;;13.70;2.22;;;;;;;5.19;85.32;101416.50;5061953;28;20029;-77
2023/01/14 02:04:37;;;;;;;10.68;2.33;;;;;;;5.16;85.50;101419.06;5062240;28;20453;-77
2023/01/14 02:07:02;;;;;;;13.90;2.15;;;;;;;5.15;85.61;101415.63;5066931;28;20037;-76
2023/01/14 02:09:28;;;;;;;17.75;2.53;;;;;;;5.14;85.49;101407.88;5063106;28;20020;-76
2023/01/14 02:12:44;;;;;;;15.20;3.03;;;;;;;5.15;85.57;101409.59;5058719;28;20024;-77
2023/01/14 02:15:17;;;;;;;14.13;2.50;;;;;;;5.12;85.90;101396.72;5053562;28;20045;-77
2023/01/14 02:18:00;;;;;;;15.70;2.30;;;;;;;5.11;85.44;101393.25;5062393;28;20032;-77
2023/01/14 02:20:34;;;;;;;11.40;2.40;;;;;;;5.10;85.67;101394.09;5072500;28;20031;-77
2023/01/14 02:23:32;;;;;;;15.77;2.85;;;;;;;5.08;85.83;101387.22;5055594;28;20050;-77
2023/01/14 02:26:16;;;;;;;10.70;2.53;;;;;;;5.07;85.87;101377.75;5054146;28;20040;-77
2023/01/14 02:29:15;;;;;;;13.40;2.47;;;;;;;5.05;85.86;101371.72;5070997;28;20021;-77
2023/01/14 02:31:51;;;;;;;14.17;2.40;;;;;;;5.03;86.75;101361.41;5041738;28;20089;-76
2023/01/14 02:34:22;;;;;;;17.43;2.20;;;;;;;5.03;86.69;101360.53;5058187;28;20056;-77
2023/01/14 02:36:59;;;;;;;15.45;1.98;;;;;;;4.99;86.87;101347.63;5056552;28;20060;-77
2023/01/14 02:39:37;;;;;;;11.83;2.20;;;;;;;4.98;87.07;101340.72;5069689;28;20441;-77
2023/01/14 02:45:05;;;;;;;12.00;2.37;;;;;;;4.97;87.03;101338.16;5053871;28;20032;-77
2023/01/14 02:47:33;;;;;;;11.23;2.10;;;;;;;4.95;87.20;101332.97;5065569;28;20507;-77
2023/01/14 02:50:00;;;;;;;11.38;2.60;;;;;;;4.93;87.56;101329.56;5052841;28;20372;-77
2023/01/14 02:52:26;;;;;;;10.90;2.40;;;;;;;4.91;87.40;101326.09;5052969;28;20032;-77
2023/01/14 02:54:56;;;;;;;10.82;1.95;;;;;;;4.90;87.74;101315.75;5035534;28;20017;-76
2023/01/14 02:57:49;;;;;;;10.05;2.20;;;;;;;4.88;87.46;101325.19;5054814;28;20028;-77
2023/01/14 03:00:48;;;;;;;11.63;1.87;;;;;;;4.89;87.28;101326.94;5056533;28;20021;-77
2023/01/14 03:03:27;;;;;;;11.27;1.88;;;;;;;4.88;87.89;101317.47;5072141;28;20070;-77
2023/01/14 03:06:05;;;;;;;12.65;1.77;;;;;;;4.85;87.61;101331.22;5067671;28;20491;-77
2023/01/14 03:08:42;;;;;;;12.57;1.93;;;;;;;4.83;87.67;101314.88;5071187;28;20024;-77
2023/01/14 03:11:09;;;;;;;14.53;2.13;;;;;;;4.82;88.02;101308.00;5071865;28;20047;-77
2023/01/14 03:13:47;;;;;;;13.63;2.20;;;;;;;4.76;87.87;101298.50;5067198;28;20064;-77
2023/01/14 03:16:25;;;;;;;11.00;2.00;;;;;;;4.78;87.94;101306.28;5069969;28;20031;-76
2023/01/14 03:19:15;;;;;;;10.63;2.03;;;;;;;4.78;88.33;101304.53;5071028;28;20055;-77
2023/01/14 03:21:47;;;;;;;12.07;2.88;;;;;;;4.75;88.38;101294.22;5068246;28;20302;-77
2023/01/14 03:24:36;;;;;;;12.65;2.00;;;;;;;4.75;88.52;101286.47;5051891;28;20032;-77
2023/01/14 03:27:08;;;;;;;13.95;2.47;;;;;;;4.75;88.54;101286.47;5070610;28;20094;-77
2023/01/14 03:29:38;;;;;;;15.13;2.08;;;;;;;4.76;88.50;101287.34;5071843;28;20052;-77
2023/01/14 03:32:25;;;;;;;15.75;2.17;;;;;;;4.76;88.67;101283.03;5069806;28;20021;-77
2023/01/14 03:34:58;;;;;;;9.47;2.00;;;;;;;4.76;88.49;101288.19;5059418;28;20028;-77
2023/01/14 03:37:25;;;;;;;15.63;2.42;;;;;;;4.77;88.24;101276.19;5064935;28;20028;-77
2023/01/14 03:39:53;;;;;;;15.63;2.10;;;;;;;4.75;89.22;101273.59;5051814;28;20021;-77
2023/01/14 03:42:22;;;;;;;14.70;1.90;;;;;;;4.78;89.35;101275.34;5055851;28;20056;-77
2023/01/14 03:44:53;;;;;;;15.27;2.43;;;;;;;4.79;88.97;101280.50;5068150;28;20031;-76
2023/01/14 03:47:21;;;;;;;10.93;1.90;;;;;;;4.80;89.22;101276.19;5067732;28;20029;-77
2023/01/14 03:49:47;;;;;;;11.50;2.60;;;;;;;4.81;89.25;101275.34;5051677;28;20434;-76
2023/01/14 03:52:20;;;;;;;11.82;2.03;;;;;;;4.81;89.71;101275.34;5059225;28;20033;-77
2023/01/14 03:54:51;;;;;;;12.45;1.73;;;;;;;4.82;89.67;101264.16;5068272;28;20036;-77
2023/01/14 03:57:38;;;;;;;13.80;2.30;;;;;;;4.83;89.40;101259.03;5069387;28;20079;-77
2023/01/14 04:00:32;;;;;;;13.47;2.00;;;;;;;4.84;89.33;101257.31;5048825;28;20384;-77
2023/01/14 04:03:00;;;;;;;12.50;2.17;;;;;;;4.82;89.52;101253.84;5042776;28;20040;-77
2023/01/14 04:05:27;;;;;;;13.13;2.30;;;;;;;4.83;89.64;101259.03;5056291;28;20037;-77
2023/01/14 04:07:55;;;;;;;14.52;2.13;;;;;;;4.83;89.94;101245.25;5056687;28;20037;-76
2023/01/14 04:10:21;;;;;;;16.30;2.47;;;;;;;4.84;89.89;101234.09;5069349;28;20433;-77
2023/01/14 04:15:30;;;;;;;10.43;2.20;;;;;;;4.81;89.97;101222.06;5063056;28;20044;-77
2023/01/14 04:17:55;;;;;;;13.60;1.80;;;;;;;4.82;89.89;101225.50;5070196;28;20029;-77
2023/01/14 04:20:20;;;;;;;13.48;2.08;;;;;;;4.82;89.65;101215.19;5060592;28;20134;-77
2023/01/14 04:22:46;;;;;;;15.48;2.10;;;;;;;4.81;90.18;101204.03;5070496;28;20021;-76
2023/01/14 04:25:11;;;;;;;12.95;2.40;;;;;;;4.81;90.24;101209.19;5059716;28;20030;-77
2023/01/14 04:27:37;;;;;;;10.45;2.00;;;;;;;4.82;89.88;101210.03;5070158;28;20112;-76
2023/01/14 04:30:03;;;;;;;16.95;2.10;;;;;;;4.84;90.10;101208.31;5061321;28;20486;-77
2023/01/14 04:32:28;;;;;;;10.63;1.58;;;;;;;4.83;90.42;101201.44;5063278;28;20442;-77
2023/01/14 04:34:53;;;;;;;9.03;1.70;;;;;;;4.85;89.99;101204.88;5065889;28;20033;-77
2023/01/14 04:37:19;;;;;;;13.10;2.00;;;;;;;4.84;90.27;101188.59;5070961;28;20052;-77
2023/01/14 04:39:45;;;;;;;11.82;1.77;;;;;;;4.85;90.03;101184.28;5055258;28;20024;-77
2023/01/14 04:42:29;;;;;;;14.60;2.30;;;;;;;4.85;90.02;101177.41;5068239;28;20039;-77
2023/01/14 04:44:56;;;;;;;9.27;1.80;;;;;;;4.86;89.86;101165.38;5070020;28;20020;-77
2023/01/14 04:47:22;;;;;;;13.68;2.75;;;;;;;4.86;90.09;101161.09;5061398;28;20709;-77
2023/01/14 04:49:48;;;;;;;12.23;2.03;;;;;;;4.86;90.25;101165.38;5071267;28;20780;-77
2023/01/14 04:52:13;;;;;;;10.82;1.90;;;;;;;4.86;90.31;101176.56;5063300;28;20032;-76
2023/01/14 04:54:38;;;;;;;8.77;1.80;;;;;;;4.86;90.54;101170.53;5064351;28;20396;-77
2023/01/14 04:57:04;;;;;;;8.98;1.52;;;;;;;4.86;90.14;101175.69;5067413;28;20021;-76
2023/01/14 04:59:29;;;;;;;13.52;1.85;;;;;;;4.85;90.64;101163.66;5072650;28;20077;-77
2023/01/14 05:01:54;;;;;;;10.65;1.88;;;;;;;4.85;90.39;101158.50;5061123;28;20033;-77
2023/01/14 05:04:20;;;;;;;9.02;1.67;;;;;;;4.86;90.27;101155.06;5068210;28;20029;-77
2023/01/14 05:06:45;;;;;;;9.93;1.67;;;;;;;4.84;90.13;101143.88;5073011;28;20036;-77
2023/01/14 05:09:10;;;;;;;14.13;2.20;;;;;;;4.86;90.68;101144.75;5055523;28;20031;-77
2023/01/14 05:11:36;;;;;;;11.80;1.47;;;;;;;4.86;90.28;101149.91;5065028;28;20020;-77
2023/01/14 05:14:01;;;;;;;13.45;1.95;;;;;;;4.89;90.44;101138.72;5071721;28;20059;-77
2023/01/14 05:16:27;;;;;;;13.20;1.90;;;;;;;4.90;90.40;101135.28;5065751;28;20021;-77
2023/01/14 05:18:52;;;;;;;12.47;1.90;;;;;;;4.90;90.11;101131.03;5072570;28;20068;-77
2023/01/14 05:21:18;;;;;;;11.67;2.50;;;;;;;4.92;90.12;101126.72;5065481;28;20033;-77
2023/01/14 05:23:44;;;;;;;10.80;1.60;;;;;;;4.92;90.10;101113.84;5064817;28;20017;-77
2023/01/14 05:26:09;;;;;;;13.77;1.90;;;;;;;4.93;90.04;101105.25;5060619;28;20043;-77
2023/01/14 05:28:36;;;;;;;6.93;1.50;;;;;;;4.95;90.11;101113.81;5065960;28;20432;-76
2023/01/14 05:31:01;;;;;;;10.43;1.83;;;;;;;4.94;90.48;101101.81;5059965;28;20104;-76
2023/01/14 05:33:26;;;;;;;8.30;1.60;;;;;;;4.95;89.88;101108.66;5065096;28;20119;-77
2023/01/14 05:35:59;;;;;;;13.95;2.17;;;;;;;4.97;90.11;101095.78;5065421;28;20028;-77
2023/01/14 05:38:25;;;;;;;10.25;1.90;;;;;;;4.96;90.07;101084.59;5060169;28;20032;-77
2023/01/14 05:40:51;;;;;;;11.55;2.13;;;;;;;4.98;89.98;101076.88;5072882;28;20048;-77
2023/01/14 05:46:06;;;;;;;10.90;1.60;;;;;;;4.97;90.19;101055.38;5070716;28;20071;-77
2023/01/14 05:48:31;;;;;;;13.07;2.00;;;;;;;4.97;90.05;101050.22;5067724;28;20028;-77
2023/01/14 05:50:58;;;;;;;8.25;1.42;;;;;;;4.97;90.25;101045.06;5071043;28;20028;-77
2023/01/14 05:53:25;;;;;;;9.10;2.00;;;;;;;4.99;89.96;101032.19;5067906;28;20426;-77
2023/01/14 05:55:51;;;;;;;12.25;1.95;;;;;;;5.00;89.72;101028.75;5073088;28;20464;-77
2023/01/14 05:58:17;;;;;;;11.18;1.85;;;;;;;5.00;90.14;101027.03;5061658;28;20054;-77
2023/01/14 06:06:50;;;;;;;9.68;1.48;;;;;;;5.04;89.90;100999.50;5054706;28;20472;-77
2023/01/14 06:09:17;;;;;;;11.80;2.08;;;;;;;5.07;89.77;101001.25;5070448;28;20039;-77
2023/01/14 06:11:48;;;;;;;10.18;1.33;;;;;;;5.05;90.01;100990.91;5056687;28;20086;-77
2023/01/14 06:14:13;;;;;;;8.20;1.50;;;;;;;5.09;89.55;100987.50;5060794;28;20116;-76
2023/01/14 06:16:39;;;;;;;9.70;1.58;;;;;;;5.08;89.83;100987.50;5068544;28;20107;-77
2023/01/14 06:19:14;;;;;;;7.63;1.50;;;;;;;5.12;89.63;100981.50;5066562;28;20360;-77
2023/01/14 06:21:40;;;;;;;8.90;1.70;;;;;;;5.13;89.66;100972.88;5066077;28;20033;-77
2023/01/14 06:24:05;;;;;;;12.93;1.75;;;;;;;5.14;89.52;100972.88;5063851;28;20392;-77
2023/01/14 06:26:34;;;;;;;13.82;1.75;;;;;;;5.17;89.39;100969.44;5070096;28;20036;-77
2023/01/14 06:29:08;;;;;;;8.88;1.70;;;;;;;5.19;89.44;100961.72;5070858;28;20047;-77
2023/01/14 06:31:35;;;;;;;12.30;1.97;;;;;;;5.21;89.51;100966.00;5070192;28;20517;-76
2023/01/14 06:34:03;;;;;;;14.02;1.70;;;;;;;5.24;89.57;100955.66;5063569;28;20021;-77
2023/01/14 06:36:30;;;;;;;9.15;1.65;;;;;;;5.24;89.38;100953.09;5066102;28;20040;-77
2023/01/14 06:38:56;;;;;;;10.35;1.50;;;;;;;5.24;89.78;100922.13;5070755;28;20047;-77
2023/01/14 06:41:21;;;;;;;9.55;1.55;;;;;;;5.24;90.03;100924.72;5067941;28;20040;-77
2023/01/14 06:43:46;;;;;;;11.40;1.67;;;;;;;5.27;89.75;100919.56;5067055;28;20426;-77
2023/01/14 06:46:14;;;;;;;10.90;2.28;;;;;;;5.28;89.93;100920.41;5060586;28;20040;-77
2023/01/14 06:48:40;;;;;;;11.88;1.58;;;;;;;5.28;90.20;100903.22;5062233;28;20067;-77
2023/01/14 06:51:08;;;;;;;12.20;1.58;;;;;;;5.26;90.57;100907.53;5065757;28;20383;-77
2023/01/14 06:53:34;;;;;;;12.90;2.25;;;;;;;5.28;90.46;100900.63;5069548;28;20020;-77
2023/01/14 06:56:04;;;;;;;8.77;1.33;;;;;;;5.30;90.47;100891.16;5063185;28;21479;-77
2023/01/14 06:58:29;;;;;;;11.90;1.70;;;;;;;5.28;90.64;100880.00;5053072;28;20028;-77
2023/01/14 07:00:56;;;;;;;8.52;1.23;;;;;;;5.27;91.22;100874.84;5060260;28;20429;-77
2023/01/14 07:03:21;;;;;;;8.23;1.42;;;;;;;5.28;91.43;100871.38;5070113;28;20056;-77
2023/01/14 07:05:46;;;;;;;9.93;1.77;;;;;;;5.28;91.44;100874.84;5068852;28;20471;-76
2023/01/14 07:08:12;;;;;;;10.73;1.58;;;;;;;5.29;91.36;100870.53;5063697;28;20024;-76
2023/01/14 07:10:37;;;;;;;10.07;1.50;;;;;;;5.27;91.94;100862.81;5061058;28;20515;-76
2023/01/14 07:13:02;;;;;;;9.80;1.95;;;;;;;5.28;91.83;100853.34;5069177;28;20494;-77
2023/01/14 07:15:28;;;;;;;10.85;1.65;;;;;;;5.27;92.60;100842.19;5071131;28;20031;-77
2023/01/14 07:17:53;;;;;;;10.30;1.50;;;;;;;5.27;92.64;100837.00;5071963;28;20103;-77
2023/01/14 07:20:18;;;;;;;6.63;1.67;;;;;;;5.27;92.70;100831.84;5068352;28;20028;-76
2023/01/14 07:22:44;;;;;;;4.85;1.10;;;;;;;5.27;92.77;100829.28;5052115;28;20025;-77
2023/01/14 07:25:09;;;;;;;8.60;1.63;;;;;;;5.28;93.40;100817.22;5051666;28;20021;-77
2023/01/14 07:27:35;;;;;;;10.18;1.60;;;;;;;5.30;92.80;100802.59;5067071;28;20048;-78
2023/01/14 07:30:00;;;;;;;9.43;1.58;;;;;;;5.28;93.44;100801.75;5034097;28;20505;-77
2023/01/14 07:32:26;;;;;;;10.00;1.50;;;;;;;5.28;93.78;100796.59;5051899;28;20021;-77
2023/01/14 07:34:51;;;;;;;9.57;1.85;;;;;;;5.26;94.05;100781.13;5054271;28;20439;-77
2023/01/14 07:37:17;;;;;;;7.97;1.43;;;;;;;5.29;93.85;100783.69;5068761;28;20367;-77
2023/01/14 07:39:42;;;;;;;7.90;1.70;;;;;;;5.29;94.15;100767.34;5046347;28;20065;-77
2023/01/14 07:42:08;;;;;;;11.10;1.92;;;;;;;5.29;94.63;100768.22;5056495;28;20071;-77
2023/01/14 07:44:33;;;;;;;9.13;1.80;;;;;;;5.32;94.30;100768.19;5051924;28;20452;-78
2023/01/14 07:46:58;;;;;;;5.35;1.95;;;;;;;5.32;94.29;100768.19;5060565;28;20123;-78
2023/01/14 07:49:25;;;;;;;7.50;1.85;;;;;;;5.32;94.68;100751.88;5065021;28;20035;-78
2023/01/14 07:51:50;;;;;;;5.60;1.23;;;;;;;5.34;95.42;100746.69;5064097;28;20028;-78
2023/01/14 07:54:17;;;;;;;8.65;1.55;;;;;;;5.35;95.02;100749.28;5058819;28;20028;-78
2023/01/14 07:56:42;;;;;;;9.05;1.73;;;;;;;5.36;95.38;100732.94;5063721;28;20035;-78
2023/01/14 07:59:08;;;;;;;8.35;1.63;;;;;;;5.40;95.54;100718.28;5057212;28;20040;-78
2023/01/14 08:01:34;;;;;;;11.05;2.22;;;;;;;5.40;95.75;100710.53;5060909;28;20036;-78
2023/01/14 08:03:59;;;;;;;5.30;1.48;;;;;;;5.41;95.46;100710.53;5055460;28;20028;-78
2023/01/14 08:06:25;;;;;;;8.80;1.88;;;;;;;5.42;95.97;100693.34;5053439;28;20052;-78
2023/01/14 08:08:50;;;;;;;7.28;1.65;;;;;;;5.43;96.02;100687.31;5054735;28;20054;-78
2023/01/14 08:11:16;;;;;;;3.30;1.40;;;;;;;5.43;96.25;100684.72;5059018;28;20048;-78
2023/01/14 08:13:41;;;;;;;6.75;1.70;;;;;;;5.44;96.36;100665.81;5063509;28;20534;-77
2023/01/14 08:16:09;;;;;;;5.50;1.58;;;;;;;5.47;96.58;100660.59;5061481;28;20041;-79
2023/01/14 08:18:35;;;;;;;5.20;1.45;;;;;;;5.48;96.15;100649.41;5056117;28;20107;-78
2023/01/14 08:21:03;;;;;;;7.15;1.48;;;;;;;5.52;96.20;100653.69;5060877;28;20123;-76
2023/01/14 08:23:30;;;;;;;6.20;1.40;;;;;;;5.54;96.34;100636.47;5057773;28;20111;-78
2023/01/14 08:26:06;;;;;;;6.47;1.60;;;;;;;5.55;96.87;100630.44;5057883;28;20100;-78
2023/01/14 08:28:32;;;;;;;5.65;1.30;;;;;;;5.59;96.52;100623.53;5059893;28;20020;-77
2023/01/14 08:31:06;;;;;;;5.05;1.42;;;;;;;5.60;96.78;100620.94;5060580;28;20028;-78
2023/01/14 08:33:32;;;;;;;4.78;1.25;;;;;;;5.64;96.48;100608.00;5062197;28;20017;-78
2023/01/14 08:36:06;;;;;;;4.97;1.27;;;;;;;5.63;96.77;100591.66;5064778;28;20103;-78
2023/01/14 08:38:32;;;;;;;5.03;1.50;;;;;;;5.67;96.81;100592.47;5069789;28;20021;-78
2023/01/14 08:40:59;;;;;;;4.10;1.33;;;;;;;5.69;97.40;100585.56;5067634;28;20088;-78
2023/01/14 08:43:24;;;;;;;4.45;1.30;;;;;;;5.71;97.40;100574.38;5067391;28;20047;-78
2023/01/14 08:45:50;;;;;;;6.63;1.38;;;;;;;5.74;97.44;100565.75;5068220;28;20016;-78
2023/01/14 08:48:15;;;;;;;6.72;1.30;;;;;;;5.77;97.55;100557.97;5065782;28;20017;-78
2023/01/14 08:50:41;;;;;;;5.18;1.40;;;;;;;5.78;97.37;100564.84;5064653;28;20020;-78
2023/01/14 08:53:06;;;;;;;4.70;1.30;;;;;;;5.82;97.29;100551.03;5065882;28;20403;-78
2023/01/14 08:55:31;;;;;;;4.07;1.15;;;;;;;5.85;97.30;100535.50;5068640;28;20416;-78
2023/01/14 08:57:57;;;;;;;4.22;1.10;;;;;;;5.87;97.29;100528.59;5066837;28;20070;-77
2023/01/14 09:00:23;;;;;;;2.80;1.20;;;;;;;5.92;97.61;100521.66;5063634;28;20382;-78
2023/01/14 09:02:48;;;;;;;4.75;1.48;;;;;;;5.95;97.48;100502.69;5063821;28;20100;-78
2023/01/14 09:05:14;;;;;;;5.50;1.20;;;;;;;6.01;97.57;100499.19;5045083;28;20044;-78
2023/01/14 09:18:37;;;;;;;4.82;1.30;;;;;;;6.14;97.79;100459.47;5061394;28;20080;-77
2023/01/14 09:21:03;;;;;;;4.07;1.10;;;;;;;6.19;97.94;100472.31;5059989;28;20387;-78
2023/01/14 09:23:28;;;;;;;4.38;0.90;;;;;;;6.18;98.14;100450.75;5058056;28;20024;-78
2023/01/14 09:25:53;;;;;;;2.85;1.00;;;;;;;6.20;98.04;100458.50;5058845;28;20059;-79
2023/01/14 09:28:19;;;;;;;2.58;0.80;;;;;;;6.23;98.10;100448.97;5059321;28;20036;-78
2023/01/14 09:30:45;;;;;;;4.43;1.00;;;;;;;6.25;98.12;100450.69;5064279;28;20510;-78
2023/01/14 09:33:11;;;;;;;2.85;0.80;;;;;;;6.28;98.36;100441.16;5058797;28;20115;-78
2023/01/14 09:35:36;;;;;;;4.95;1.20;;;;;;;6.29;97.93;100432.53;5063577;28;20120;-78
2023/01/14 09:38:02;;;;;;;7.03;1.30;;;;;;;6.31;98.35;100433.38;5065943;28;20037;-78
2023/01/14 09:40:27;;;;;;;3.50;1.00;;;;;;;6.35;98.52;100426.41;5060528;28;20392;-78
2023/01/14 09:42:52;;;;;;;4.43;0.90;;;;;;;6.34;98.34;100414.38;5056927;28;20060;-78
2023/01/14 09:45:28;;;;;;;3.97;1.23;;;;;;;6.37;98.48;100407.47;5059412;28;20033;-78
2023/01/14 09:47:57;;;;;;;4.75;0.80;;;;;;;6.37;98.67;100397.13;5057295;28;20052;-78
2023/01/14 09:50:59;;;;;;;4.07;1.00;;;;;;;6.38;98.56;100390.22;5054665;28;20063;-78
2023/01/14 09:54:02;;;;;;;3.90;1.00;;;;;;;6.40;99.08;100382.44;5062800;28;20399;-78
2023/01/14 09:56:58;;;;;;;4.50;0.90;;;;;;;6.41;98.89;100374.66;5057616;28;20035;-78
2023/01/14 10:00:02;;;;;;;6.15;1.33;;;;;;;6.43;98.39;100362.56;5058892;28;20436;-77
2023/01/14 10:02:39;;;;;;;4.03;1.10;;;;;;;6.45;98.83;100350.47;5065155;28;20043;-77
2023/01/14 10:05:21;;;;;;;2.95;1.00;;;;;;;6.47;98.74;100340.97;5029777;28;1032236;-78
2023/01/14 10:07:48;;;;;;;4.70;1.10;;;;;;;6.49;99.14;100346.94;5068405;28;20043;-77
2023/01/14 10:10:35;;;;;;;3.95;0.90;;;;;;;6.50;99.15;100335.72;5065872;28;20044;-77
2023/01/14 10:13:06;;;;;;;3.20;0.85;;;;;;;6.56;99.03;100336.50;5070901;28;20029;-77
2023/01/14 10:15:57;;;;;;;4.03;1.17;;;;;;;6.57;99.16;100315.84;5070111;28;20383;-77
2023/01/14 10:18:49;;;;;;;4.13;1.10;;;;;;;6.59;99.40;100305.44;5062467;28;20077;-77
2023/01/14 10:21:33;;;;;;;4.00;1.30;;;;;;;6.63;99.66;100291.59;5050522;28;20066;-77
2023/01/14 10:23:58;;;;;;;6.03;1.10;;;;;;;6.68;99.43;100279.44;5071316;28;20544;-78
2023/01/14 10:26:31;;;;;;;4.10;1.10;;;;;;;6.72;99.81;100255.22;5069540;28;20192;-77
2023/01/14 10:29:01;;;;;;;5.38;1.05;;;;;;;6.77;99.78;100273.22;5069284;28;20115;-78
2023/01/14 10:31:32;;;;;;;3.08;0.90;;;;;;;6.78;99.80;100260.28;5071232;28;20040;-79
2023/01/14 10:33:58;;;;;;;5.82;1.30;;;;;;;6.82;100.00;100251.59;5070167;28;20458;-78
2023/01/14 10:36:29;;;;;;;4.25;1.02;;;;;;;6.84;100.00;100229.13;5073659;28;20036;-77
2023/01/14 10:38:55;;;;;;;7.30;1.30;;;;;;;6.89;100.00;100247.16;5054521;28;20032;-77
2023/01/14 10:41:48;;;;;;;3.42;0.73;;;;;;;6.93;99.91;100229.84;5073747;28;20624;-77
2023/01/14 10:44:16;;;;;;;4.82;1.10;;;;;;;6.96;99.93;100228.03;5067845;28;20128;-76
2023/01/14 10:46:43;;;;;;;3.33;0.95;;;;;;;7.02;99.84;100219.28;5071630;28;20031;-77
2023/01/14 10:49:19;;;;;;;4.82;0.93;;;;;;;7.07;100.00;100191.59;5070977;28;20039;-77
2023/01/14 10:51:49;;;;;;;3.00;0.70;;;;;;;7.09;100.00;100197.59;5072780;28;20032;-78
2023/01/14 10:54:23;;;;;;;3.00;0.80;;;;;;;7.13;100.00;100194.06;5049331;28;20392;-77
2023/01/14 10:56:54;;;;;;;3.92;1.15;;;;;;;7.15;100.00;100168.16;5072849;28;20028;-77
2023/01/14 10:59:49;;;;;;;6.88;0.93;;;;;;;7.19;100.00;100174.09;5073391;28;20476;-78
2023/01/14 11:02:31;;;;;;;5.72;0.95;;;;;;;7.21;100.00;100154.22;5072568;28;20089;-78
2023/01/14 11:04:57;;;;;;;5.05;1.02;;;;;;;7.23;100.00;100168.84;5069332;28;20457;-78
2023/01/14 11:07:26;;;;;;;3.90;0.80;;;;;;;7.25;100.00;100135.16;5069764;28;20473;-79
2023/01/14 11:09:52;;;;;;;2.67;0.73;;;;;;;7.29;100.00;100147.97;5070307;28;20036;-77
2023/01/14 11:12:27;;;;;;;4.40;0.95;;;;;;;7.29;100.00;100124.69;5070177;28;20032;-77
2023/01/14 11:14:52;;;;;;;5.05;1.10;;;;;;;7.34;100.00;100109.09;5068876;28;20033;-78
2023/01/14 11:17:29;;;;;;;2.88;0.80;;;;;;;7.38;100.00;100115.03;5071415;28;20032;-77
2023/01/14 11:20:20;;;;;;;5.13;0.60;;;;;;;7.41;100.00;100104.59;5068596;28;20039;-76
2023/01/14 11:22:54;;;;;;;1.92;0.70;;;;;;;7.42;100.00;100099.38;5056475;28;20032;-77
2023/01/14 11:25:23;;;;;;;2.72;0.70;;;;;;;7.45;100.00;100095.84;5071515;28;20473;-77
2023/01/14 11:27:49;;;;;;;0.90;0.60;;;;;;;7.48;100.00;100084.59;5071544;28;20070;-77
2023/01/14 11:30:20;;;;;;;1.92;0.60;;;;;;;7.51;100.00;100080.19;5067012;28;20076;-78
2023/01/14 11:32:49;;;;;;;1.08;0.50;;;;;;;7.59;100.00;100087.75;5073670;28;20043;-77
2023/01/14 11:35:25;;;;;;;2.38;0.60;;;;;;;7.57;100.00;100063.63;5069086;28;20028;-77
2023/01/14 11:37:53;;;;;;;2.22;0.63;;;;;;;7.60;100.00;100048.03;5068736;28;20044;-77
2023/01/14 11:43:53;;;;;;;2.60;0.60;;;;;;;7.65;100.00;100051.34;5025027;28;20051;-80
2023/01/14 11:46:19;;;;;;;1.65;0.70;;;;;;;7.67;100.00;100036.63;5063381;28;20028;-77
2023/01/14 11:48:58;;;;;;;1.67;0.60;;;;;;;7.70;100.00;100036.53;5070986;28;20031;-76
2023/01/14 11:51:25;;;;;;;1.17;0.60;;;;;;;7.72;100.00;100037.34;5069742;28;20024;-76
2023/01/14 11:53:52;;;;;;;1.98;0.50;;;;;;;7.73;100.00;100015.75;5067727;28;20031;-76
2023/01/14 11:56:33;;;;;;;1.33;0.50;;;;;;;7.77;99.93;100015.66;5068606;28;20036;-77
2023/01/14 11:59:17;;;;;;;2.30;0.63;;;;;;;7.78;99.79;100023.38;5068768;28;20038;-77
2023/01/14 12:02:10;;;;;;;1.65;0.68;;;;;;;7.80;99.71;100007.81;5071192;28;20024;-77
2023/01/14 12:04:44;;;;;;;1.38;0.40;;;;;;;7.83;99.54;100010.31;5030216;28;20044;-77
2023/01/14 12:07:17;;;;;;;1.10;0.55;;;;;;;7.82;99.78;99977.56;5067301;28;20036;-76
2023/01/14 12:09:51;;;;;;;1.20;0.50;;;;;;;7.86;99.48;99985.19;5067359;28;20051;-76
2023/01/14 12:16:48;;;;;;;1.75;0.50;;;;;;;7.86;99.54;99997.25;5063731;28;20035;-77